Time;durP1;ratioP1;P1;durP2;ratioP2;P2;SDS_P1;SDS_P2;PMS_P1;PMS_P2;Temp;Humidity;BMP_temperature;BMP_pressure;BME280_temperature;BME280_humidity;BME280_pressure;Samples;Min_cycle;Max_cycle;Signal;HPM_P1;HPM_P2
2022/04/01 00:01:17;;;;;;;;;;;;;;;-0.19;100.00;100691.19;5137949;27;19915;-67
2022/04/01 00:03:42;;;;;;;;;;;;;;;-0.19;100.00;100695.56;5134995;27;20026;-67
2022/04/01 00:06:07;;;;;;;;;;;;;;;-0.13;100.00;100693.78;5118025;27;19968;-68
2022/04/01 00:09:05;;;;;;;;;;;;;;;-0.17;100.00;100699.00;5137836;27;20028;-68
2022/04/01 00:11:30;;;;;;;;;;;;;;;-0.20;100.00;100701.63;5136640;27;19994;-67
2022/04/01 00:13:55;;;;;;;;;;;;;;;-0.18;100.00;100703.38;5137708;27;20362;-67
2022/04/01 00:19:24;;;;;;;;;;;;;;;-0.21;100.00;100726.00;5131623;27;19962;-68
2022/04/01 00:21:49;;;;;;;;;;;;;;;-0.15;100.00;100706.00;5137642;27;19967;-68
2022/04/01 00:24:14;;;;;;;;;;;;;;;-0.18;100.00;100724.25;5137582;27;19911;-68
2022/04/01 00:26:40;;;;;;;;;;;;;;;-0.18;100.00;100713.81;5119183;27;19964;-68
2022/04/01 00:29:14;;;;;;;;;;;;;;;-0.20;100.00;100740.78;5119364;27;19956;-68
2022/04/01 00:31:40;;;;;;;;;;;;;;;-0.19;100.00;100727.72;5119316;27;19929;-68
2022/04/01 00:34:18;;;;;;;;;;;;;;;-0.13;100.00;100759.03;5137467;27;20366;-68
2022/04/01 00:36:43;;;;;;;;;;;;;;;-0.22;100.00;100766.88;5129635;27;20347;-67
2022/04/01 00:39:08;;;;;;;;;;;;;;;-0.23;100.00;100759.94;5112267;27;19915;-68
2022/04/01 00:44:37;;;;;;;;;;;;;;;-0.22;100.00;100766.03;5137385;27;19941;-67
2022/04/01 00:50:06;;;;;;;;;;;;;;;-0.19;100.00;100790.34;5137502;27;19941;-68
2022/04/01 00:52:31;;;;;;;;;;;;;;;-0.21;100.00;100781.69;5137112;27;20255;-67
2022/04/01 00:54:57;;;;;;;;;;;;;;;-0.29;100.00;100786.03;5137266;27;19941;-68
2022/04/01 00:57:25;;;;;;;;;;;;;;;-0.22;100.00;100811.25;5137589;27;19973;-68
2022/04/01 00:59:51;;;;;;;;;;;;;;;-0.25;100.00;100821.69;5137184;27;19922;-68
2022/04/01 01:02:17;;;;;;;;;;;;;;;-0.30;100.00;100828.63;5137138;27;19920;-68
2022/04/01 01:04:42;;;;;;;;;;;;;;;-0.28;100.00;100821.69;5118743;27;19941;-67
2022/04/01 01:07:07;;;;;;;;;;;;;;;-0.26;100.00;100829.50;5118666;27;20026;-67
2022/04/01 01:09:32;;;;;;;;;;;;;;;-0.29;100.00;100825.16;5137070;27;19915;-67
2022/04/01 01:11:58;;;;;;;;;;;;;;;-0.30;100.00;100823.41;5118507;27;20538;-67
2022/04/01 01:14:31;;;;;;;;;;;;;;;-0.27;100.00;100833.00;5118587;27;20000;-66
2022/04/01 01:16:57;;;;;;;;;;;;;;;-0.32;100.00;100834.72;5136937;27;20394;-66
2022/04/01 01:19:23;;;;;;;;;;;;;;;-0.37;100.00;100832.13;5136928;27;19915;-68
2022/04/01 01:21:50;;;;;;;;;;;;;;;-0.27;100.00;100840.81;5136840;27;19923;-67
2022/04/01 01:24:15;;;;;;;;;;;;;;;-0.29;100.00;100846.03;5137488;27;19916;-66
2022/04/01 01:26:44;;;;;;;;;;;;;;;-0.27;100.00;100846.91;5136895;27;20354;-66
2022/04/01 01:29:09;;;;;;;;;;;;;;;-0.33;100.00;100854.72;5136980;27;19916;-67
2022/04/01 01:31:34;;;;;;;;;;;;;;;-0.29;100.00;100859.09;5137021;27;19922;-66
2022/04/01 01:34:00;;;;;;;;;;;;;;;-0.27;100.00;100853.88;5118415;27;19998;-67
2022/04/01 01:36:29;;;;;;;;;;;;;;;-0.21;100.00;100859.97;5136716;27;19921;-67
2022/04/01 01:38:54;;;;;;;;;;;;;;;-0.30;100.00;100853.88;5136416;27;19915;-67
2022/04/01 01:41:20;;;;;;;;;;;;;;;-0.25;100.00;100873.88;5118147;27;20369;-67
2022/04/01 01:43:45;;;;;;;;;;;;;;;-0.33;100.00;100865.16;5118157;27;19915;-67
2022/04/01 01:46:10;;;;;;;;;;;;;;;-0.32;100.00;100866.03;5136972;27;19915;-67
2022/04/01 01:48:36;;;;;;;;;;;;;;;-0.35;100.00;100877.31;5136302;27;20004;-67
2022/04/01 01:56:29;;;;;;;;;;;;;;;-0.24;100.00;100874.75;5136486;27;19973;-67
2022/04/01 01:58:55;;;;;;;;;;;;;;;-0.31;100.00;100879.09;5136099;27;19919;-68
2022/04/01 02:01:20;;;;;;;;;;;;;;;-0.32;100.00;100872.13;5117564;27;20289;-66
2022/04/01 02:03:45;;;;;;;;;;;;;;;-0.32;100.00;100876.47;5136176;27;19916;-66
2022/04/01 02:06:11;;;;;;;;;;;;;;;-0.30;100.00;100875.59;5136335;27;19916;-66
2022/04/01 02:08:36;;;;;;;;;;;;;;;-0.26;100.00;100886.91;5117479;27;19938;-66
2022/04/01 02:11:01;;;;;;;;;;;;;;;-0.29;100.00;100881.69;5117521;27;19938;-66
2022/04/01 02:13:27;;;;;;;;;;;;;;;-0.23;100.00;100905.19;5135814;27;19919;-67
2022/04/01 02:15:53;;;;;;;;;;;;;;;-0.29;100.00;100886.91;5117097;27;19964;-67
2022/04/01 02:18:20;;;;;;;;;;;;;;;-0.25;100.00;100889.53;5135706;27;20286;-67
2022/04/01 02:20:45;;;;;;;;;;;;;;;-0.27;100.00;100886.03;5117118;27;20370;-67
2022/04/01 02:23:11;;;;;;;;;;;;;;;-0.32;100.00;100893.00;5135757;27;19922;-66
2022/04/01 02:25:36;;;;;;;;;;;;;;;-0.26;100.00;100898.25;5135798;27;19920;-66
2022/04/01 02:28:01;;;;;;;;;;;;;;;-0.26;100.00;100892.13;5135716;27;20016;-65
2022/04/01 02:30:27;;;;;;;;;;;;;;;-0.29;100.00;100897.34;5135724;27;19919;-65
2022/04/01 02:32:52;;;;;;;;;;;;;;;-0.21;100.00;100896.50;5135431;27;19915;-66
2022/04/01 02:35:18;;;;;;;;;;;;;;;-0.23;100.00;100913.91;5117138;27;20387;-66
2022/04/01 02:37:44;;;;;;;;;;;;;;;-0.15;100.00;100908.69;5135638;27;19927;-66
2022/04/01 02:40:09;;;;;;;;;;;;;;;-0.18;100.00;100916.50;5135599;27;20000;-66
2022/04/01 02:42:35;;;;;;;;;;;;;;;-0.20;100.00;100915.63;5117194;27;20007;-66
2022/04/01 02:45:00;;;;;;;;;;;;;;;-0.20;100.00;100923.47;5117039;27;19916;-66
2022/04/01 02:47:25;;;;;;;;;;;;;;;-0.22;100.00;100935.66;5116999;27;20446;-66
2022/04/01 02:49:51;;;;;;;;;;;;;;;-0.23;100.00;100932.16;5117135;27;20018;-66
2022/04/01 02:52:16;;;;;;;;;;;;;;;-0.20;100.00;100932.16;5135341;27;19926;-65
2022/04/01 02:54:41;;;;;;;;;;;;;;;-0.26;100.00;100933.88;5116729;27;20378;-66
2022/04/01 02:57:09;;;;;;;;;;;;;;;-0.25;100.00;100938.22;5135365;27;19919;-66
2022/04/01 02:59:34;;;;;;;;;;;;;;;-0.30;100.00;100942.59;5116793;27;20010;-66
2022/04/01 03:01:59;;;;;;;;;;;;;;;-0.28;100.00;100956.50;5135188;27;19973;-66
2022/04/01 03:04:24;;;;;;;;;;;;;;;-0.24;100.00;100958.25;5116560;28;20322;-66
2022/04/01 03:06:50;;;;;;;;;;;;;;;-0.30;100.00;100953.03;5134967;27;19915;-66
2022/04/01 03:09:15;;;;;;;;;;;;;;;-0.25;100.00;100946.94;5135073;27;19922;-66
2022/04/01 03:11:42;;;;;;;;;;;;;;;-0.20;100.00;100958.28;5135214;27;19915;-66
2022/04/01 03:14:08;;;;;;;;;;;;;;;-0.25;100.00;100959.09;5116440;28;20026;-66
2022/04/01 03:16:34;;;;;;;;;;;;;;;-0.28;100.00;100961.72;5135382;27;19915;-65
2022/04/01 03:18:59;;;;;;;;;;;;;;;-0.17;100.00;100968.72;5135121;28;19922;-66
2022/04/01 03:21:25;;;;;;;;;;;;;;;-0.27;100.00;100961.72;5135273;28;19920;-65
2022/04/01 03:23:51;;;;;;;;;;;;;;;-0.28;100.00;100977.38;5116979;28;19942;-66
2022/04/01 03:26:16;;;;;;;;;;;;;;;-0.24;100.00;100973.91;5135234;28;19915;-65
2022/04/01 03:28:42;;;;;;;;;;;;;;;-0.23;100.00;100970.44;5116638;28;19923;-66
2022/04/01 03:31:09;;;;;;;;;;;;;;;-0.18;100.00;100968.72;5135142;28;19915;-65
2022/04/01 03:33:35;;;;;;;;;;;;;;;-0.20;100.00;100973.94;5135414;28;20338;-66
2022/04/01 03:36:01;;;;;;;;;;;;;;;-0.29;100.00;100981.75;5135246;28;19984;-66
2022/04/01 03:38:26;;;;;;;;;;;;;;;-0.29;100.00;100986.06;5134855;28;19919;-66
2022/04/01 03:40:52;;;;;;;;;;;;;;;-0.27;100.00;100990.41;5134940;28;19916;-66
2022/04/01 03:43:20;;;;;;;;;;;;;;;-0.22;100.00;101003.50;5116421;28;20345;-66
2022/04/01 03:45:48;;;;;;;;;;;;;;;-0.22;100.00;100993.91;5134980;28;19922;-66
2022/04/01 03:48:23;;;;;;;;;;;;;;;-0.26;100.00;100986.09;5116371;28;19922;-66
2022/04/01 03:50:52;;;;;;;;;;;;;;;-0.25;100.00;101004.34;5134763;28;19915;-66
2022/04/01 03:53:22;;;;;;;;;;;;;;;-0.19;100.00;101009.59;5134779;28;19920;-66
2022/04/01 03:55:47;;;;;;;;;;;;;;;-0.22;100.00;101014.81;5134829;28;19966;-67
2022/04/01 03:58:13;;;;;;;;;;;;;;;-0.19;100.00;101012.19;5134800;28;19960;-66
2022/04/01 04:00:40;;;;;;;;;;;;;;;-0.22;100.00;101017.41;5134661;28;19922;-66
2022/04/01 04:03:07;;;;;;;;;;;;;;;-0.23;100.00;101020.00;5134870;28;19915;-66
2022/04/01 04:05:34;;;;;;;;;;;;;;;-0.23;100.00;101018.28;5116310;28;19916;-66
2022/04/01 04:08:01;;;;;;;;;;;;;;;-0.26;100.00;101027.84;5116281;28;19919;-66
2022/04/01 04:10:28;;;;;;;;;;;;;;;-0.22;100.00;101033.06;5134751;28;19919;-66
2022/04/01 04:12:56;;;;;;;;;;;;;;;-0.15;100.00;101028.75;5116298;28;19915;-65
2022/04/01 04:15:23;;;;;;;;;;;;;;;-0.21;100.00;101032.22;5116750;27;19954;-67
2022/04/01 04:17:52;;;;;;;;;;;;;;;-0.18;100.00;101042.66;5119741;27;19915;-66
2022/04/01 04:20:18;;;;;;;;;;;;;;;-0.22;100.00;101040.91;5139305;27;19920;-68
2022/04/01 04:23:02;;;;;;;;;;;;;;;-0.21;100.00;101058.31;5139651;27;19915;-67
2022/04/01 04:25:34;;;;;;;;;;;;;;;-0.20;100.00;101043.50;5138329;27;19919;-67
2022/04/01 04:28:00;;;;;;;;;;;;;;;-0.20;100.00;101052.22;5120090;27;19962;-67
2022/04/01 04:30:33;;;;;;;;;;;;;;;-0.19;100.00;101048.72;5138617;27;19915;-67
2022/04/01 04:33:06;;;;;;;;;;;;;;;-0.17;100.00;101053.97;5120279;27;19922;-67
2022/04/01 04:35:35;;;;;;;;;;;;;;;-0.12;100.00;101060.97;5121271;27;19916;-69
2022/04/01 04:38:02;;;;;;;;;;;;;;;-0.14;100.00;101069.63;5119777;27;19916;-68
2022/04/01 04:40:28;;;;;;;;;;;;;;;-0.14;100.00;101067.03;5138397;27;19964;-69
2022/04/01 04:42:53;;;;;;;;;;;;;;;-0.07;100.00;101068.81;5119653;27;19964;-67
2022/04/01 04:45:20;;;;;;;;;;;;;;;-0.06;100.00;101066.19;5138221;27;19919;-69
2022/04/01 04:47:46;;;;;;;;;;;;;;;-0.13;100.00;101074.00;5119496;27;19926;-67
2022/04/01 04:50:11;;;;;;;;;;;;;;;-0.07;100.00;101085.34;5137957;27;20010;-66
2022/04/01 04:52:38;;;;;;;;;;;;;;;-0.13;100.00;101085.28;5140458;27;19968;-69
2022/04/01 04:55:06;;;;;;;;;;;;;;;-0.12;100.00;101089.66;5102022;27;19930;-66
2022/04/01 04:57:32;;;;;;;;;;;;;;;-0.11;100.00;101086.19;5118624;27;19916;-66
2022/04/01 04:59:58;;;;;;;;;;;;;;;-0.12;100.00;101088.78;5137373;27;19915;-68
2022/04/01 05:02:42;;;;;;;;;;;;;;;-0.11;100.00;101109.69;5138503;27;19922;-67
2022/04/01 05:05:12;;;;;;;;;;;;;;;-0.06;100.00;101114.91;5116451;27;19962;-65
2022/04/01 05:07:53;;;;;;;;;;;;;;;-0.11;100.00;101125.34;5117251;28;19923;-66
2022/04/01 05:10:27;;;;;;;;;;;;;;;-0.08;100.00;101127.97;5098755;28;20275;-66
2022/04/01 05:13:23;;;;;;;;;;;;;;;-0.12;100.00;101123.59;5099298;28;20638;-66
2022/04/01 05:15:51;;;;;;;;;;;;;;;-0.12;100.00;101141.00;5114111;27;19922;-65
2022/04/01 05:18:24;;;;;;;;;;;;;;;-0.14;100.00;101137.50;5139012;27;19954;-66
2022/04/01 05:20:52;;;;;;;;;;;;;;;-0.06;100.00;101138.41;5138453;27;19972;-65
2022/04/01 05:23:30;;;;;;;;;;;;;;;-0.06;100.00;101147.13;5138806;27;19919;-66
2022/04/01 05:25:57;;;;;;;;;;;;;;;-0.10;100.00;101144.50;5139227;27;19915;-66
2022/04/01 05:28:25;;;;;;;;;;;;;;;-0.11;100.00;101151.44;5138675;27;20374;-67
2022/04/01 05:31:08;;;;;;;;;;;;;;;-0.12;100.00;101160.16;5138371;27;20289;-68
2022/04/01 05:33:56;;;;;;;;;;;;;;;-0.15;100.00;101170.56;5121436;27;20081;-66
2022/04/01 05:36:23;;;;;;;;;;;;;;;-0.09;100.00;101173.22;5120083;27;20367;-69
2022/04/01 05:38:49;;;;;;;;;;;;;;;-0.10;100.00;101176.69;5120779;27;19922;-66
2022/04/01 05:41:19;;;;;;;;;;;;;;;-0.11;100.00;101176.69;5138166;27;19916;-65
2022/04/01 05:43:46;;;;;;;;;;;;;;;-0.11;100.00;101172.31;5136418;27;19993;-66
2022/04/01 05:46:11;;;;;;;;;;;;;;;-0.04;100.00;101183.69;5138224;27;19916;-66
2022/04/01 05:48:38;;;;;;;;;;;;;;;-0.14;100.00;101180.13;5137902;27;20386;-66
2022/04/01 05:51:04;;;;;;;;;;;;;;;-0.12;100.00;101178.41;5119004;27;20013;-66
2022/04/01 05:53:30;;;;;;;;;;;;;;;-0.08;100.00;101188.00;5137575;27;19982;-66
2022/04/01 05:55:56;;;;;;;;;;;;;;;-0.07;100.00;101197.59;5137809;27;19922;-66
2022/04/01 05:58:21;;;;;;;;;;;;;;;-0.07;100.00;101192.38;5137651;27;20374;-66
2022/04/01 06:00:56;;;;;;;;;;;;;;;-0.06;100.00;101194.13;5119754;27;19919;-66
2022/04/01 06:03:40;;;;;;;;;;;;;;;-0.05;100.00;101198.47;5136064;27;20374;-71
2022/04/01 06:06:05;;;;;;;;;;;;;;;-0.03;100.00;101199.34;5136851;27;19926;-67
2022/04/01 06:08:39;;;;;;;;;;;;;;;0.06;100.00;101197.66;5137079;27;19915;-66
2022/04/01 06:11:33;;;;;;;;;;;;;;;0.03;100.00;101208.09;5136834;27;19942;-66
2022/04/01 06:13:58;;;;;;;;;;;;;;;0.06;100.00;101210.72;5114561;27;19950;-65
2022/04/01 06:16:42;;;;;;;;;;;;;;;0.13;100.00;101221.19;5118546;27;19916;-65
2022/04/01 06:19:27;;;;;;;;;;;;;;;0.19;100.00;101223.81;5137222;27;19976;-66
2022/04/01 06:22:03;;;;;;;;;;;;;;;0.24;100.00;101195.16;5117461;27;19927;-65
2022/04/01 06:24:31;;;;;;;;;;;;;;;0.22;100.00;101204.72;5136382;27;20383;-66
2022/04/01 06:26:58;;;;;;;;;;;;;;;0.22;100.00;101215.16;5136510;27;20263;-65
2022/04/01 06:29:28;;;;;;;;;;;;;;;0.25;100.00;101205.59;5134321;27;20298;-65
2022/04/01 06:31:57;;;;;;;;;;;;;;;0.19;100.00;101199.47;5130462;27;19962;-65
2022/04/01 06:34:26;;;;;;;;;;;;;;;0.22;100.00;101182.06;5136419;27;19916;-66
2022/04/01 06:36:53;;;;;;;;;;;;;;;0.22;100.00;101178.59;5118156;27;19916;-67
2022/04/01 06:39:37;;;;;;;;;;;;;;;0.23;100.00;101172.50;5122261;27;20286;-66
2022/04/01 06:42:05;;;;;;;;;;;;;;;0.29;100.00;101173.41;5097678;28;19915;-66
2022/04/01 06:44:30;;;;;;;;;;;;;;;0.37;100.00;101171.69;5098580;28;19920;-66
2022/04/01 06:46:55;;;;;;;;;;;;;;;0.35;100.00;101170.78;5103649;28;19916;-65
2022/04/01 06:49:21;;;;;;;;;;;;;;;0.40;100.00;101160.34;5136579;27;19915;-66
2022/04/01 06:51:46;;;;;;;;;;;;;;;0.44;100.00;101154.28;5136945;27;19924;-65
2022/04/01 06:54:12;;;;;;;;;;;;;;;0.52;100.00;101158.66;5136652;27;20259;-65
2022/04/01 06:56:37;;;;;;;;;;;;;;;0.53;100.00;101154.31;5136476;27;19998;-65
2022/04/01 06:59:05;;;;;;;;;;;;;;;0.67;100.00;101147.38;5136336;27;19923;-66
2022/04/01 07:01:30;;;;;;;;;;;;;;;0.70;100.00;101152.59;5117985;27;19922;-65
2022/04/01 07:03:55;;;;;;;;;;;;;;;0.86;100.00;101163.09;5136541;27;19915;-65
2022/04/01 07:06:20;;;;;;;;;;;;;;;0.76;100.00;101157.84;5118991;27;19987;-65
2022/04/01 07:08:47;;;;;;;;;;;;;;;0.75;100.00;101146.53;5118218;27;19919;-66
2022/04/01 07:11:13;;;;;;;;;;;;;;;0.98;100.00;101155.28;5118105;28;20339;-66
2022/04/01 07:13:38;;;;;;;;;;;;;;;1.09;100.00;101150.91;5136744;27;19920;-66
2022/04/01 07:16:06;;;;;;;;;;;;;;;1.10;100.00;101151.81;5136628;27;19927;-66
2022/04/01 07:18:31;;;;;;;;;;;;;;;1.05;100.00;101148.31;5137072;27;20018;-67
2022/04/01 07:20:57;;;;;;;;;;;;;;;1.16;100.00;101141.34;5136165;28;20307;-66
2022/04/01 07:23:22;;;;;;;;;;;;;;;1.30;100.00;101153.53;5136809;28;20385;-67
2022/04/01 07:25:47;;;;;;;;;;;;;;;1.32;100.00;101140.47;5136476;28;19920;-66
2022/04/01 07:28:13;;;;;;;;;;;;;;;1.41;100.00;101138.72;5137708;28;19916;-67
2022/04/01 07:30:38;;;;;;;;;;;;;;;1.45;100.00;101142.16;5136306;28;19916;-71
2022/04/01 07:33:03;;;;;;;;;;;;;;;1.53;100.00;101143.03;5116136;28;19919;-67
2022/04/01 07:35:29;;;;;;;;;;;;;;;1.65;100.00;101139.53;5114622;28;19920;-66
2022/04/01 07:37:54;;;;;;;;;;;;;;;1.73;100.00;101151.75;5127519;28;20370;-66
2022/04/01 07:40:21;;;;;;;;;;;;;;;1.75;100.00;101130.81;5099762;28;19930;-66
2022/04/01 07:42:48;;;;;;;;;;;;;;;1.72;100.00;101143.91;5120795;28;19915;-67
2022/04/01 07:45:13;;;;;;;;;;;;;;;1.73;100.00;101135.16;5096615;28;19973;-67
2022/04/01 07:47:42;;;;;;;;;;;;;;;2.06;100.00;101132.44;5115272;28;19955;-66
2022/04/01 07:50:08;;;;;;;;;;;;;;;2.12;100.00;101132.41;5096790;28;19923;-67
2022/04/01 07:52:33;;;;;;;;;;;;;;;2.08;100.00;101117.59;5104275;27;19916;-69
2022/04/01 07:54:59;;;;;;;;;;;;;;;2.12;100.00;101127.16;5140115;27;20018;-67
2022/04/01 07:57:24;;;;;;;;;;;;;;;2.17;100.00;101118.44;5140153;27;20010;-68
2022/04/01 07:59:49;;;;;;;;;;;;;;;2.35;100.00;101113.09;5139554;27;19922;-67
2022/04/01 08:02:15;;;;;;;;;;;;;;;2.35;100.00;101115.72;5120844;27;19943;-67
2022/04/01 08:04:40;;;;;;;;;;;;;;;2.26;100.00;101104.41;5134366;27;19922;-67
2022/04/01 08:07:05;;;;;;;;;;;;;;;2.26;100.00;101102.66;5138433;27;19987;-67
2022/04/01 08:09:33;;;;;;;;;;;;;;;2.46;100.00;101113.06;5138897;27;19915;-68
2022/04/01 08:11:58;;;;;;;;;;;;;;;2.49;100.00;101105.16;5139081;27;20378;-67
2022/04/01 08:14:24;;;;;;;;;;;;;;;2.67;100.00;101108.53;5138709;27;20006;-69
2022/04/01 08:16:49;;;;;;;;;;;;;;;2.62;100.00;101104.19;5120890;27;20010;-67
2022/04/01 08:19:14;;;;;;;;;;;;;;;2.69;100.00;101108.53;5119992;27;19972;-67
2022/04/01 08:21:40;;;;;;;;;;;;;;;2.77;100.00;101099.72;5139158;27;19927;-66
2022/04/01 08:24:07;;;;;;;;;;;;;;;3.15;100.00;101104.69;5138986;27;19927;-67
2022/04/01 08:26:32;;;;;;;;;;;;;;;2.95;100.00;101110.06;5114132;28;19919;-68
2022/04/01 08:28:57;;;;;;;;;;;;;;;3.02;100.00;101106.53;5117326;28;20267;-67
2022/04/01 08:31:24;;;;;;;;;;;;;;;3.12;100.00;101100.31;5118360;27;19938;-68
2022/04/01 08:33:50;;;;;;;;;;;;;;;3.05;100.00;101103.00;5138577;27;19919;-67
2022/04/01 08:36:16;;;;;;;;;;;;;;;3.06;100.00;101113.50;5134043;27;19937;-68
2022/04/01 08:38:42;;;;;;;;;;;;;;;3.25;100.00;101110.72;5107516;28;19916;-67
2022/04/01 08:41:07;;;;;;;;;;;;;;;3.11;100.00;101108.19;5119853;27;20443;-68
2022/04/01 08:43:37;;;;;;;;;;;;;;;2.87;100.00;101117.13;5138602;27;20388;-68
2022/04/01 08:46:04;;;;;;;;;;;;;;;2.68;100.00;101115.50;5138134;27;19938;-68
2022/04/01 08:48:29;;;;;;;;;;;;;;;2.91;100.00;101117.97;5138227;27;20301;-68
2022/04/01 08:50:55;;;;;;;;;;;;;;;2.74;100.00;101115.47;5120569;27;19915;-68
2022/04/01 08:53:21;;;;;;;;;;;;;;;2.92;100.00;101131.09;5120475;27;19915;-66
2022/04/01 08:55:48;;;;;;;;;;;;;;;2.99;100.00;101127.53;5137369;27;20282;-67
2022/04/01 08:58:16;;;;;;;;;;;;;;;3.27;100.00;101133.44;5136796;27;20007;-67
2022/04/01 09:00:42;;;;;;;;;;;;;;;3.22;100.00;101134.34;5137396;27;19915;-66
2022/04/01 09:03:08;;;;;;;;;;;;;;;3.66;100.00;101148.81;5136278;27;19922;-66
2022/04/01 09:05:34;;;;;;;;;;;;;;;3.67;100.00;101141.81;5136936;27;19922;-66
2022/04/01 09:08:08;;;;;;;;;;;;;;;3.60;100.00;101132.25;5137155;27;20285;-66
2022/04/01 09:10:54;;;;;;;;;;;;;;;3.63;100.00;101137.47;5118417;27;20386;-66
2022/04/01 09:13:20;;;;;;;;;;;;;;;3.97;100.00;101138.88;5117728;27;20282;-67
2022/04/01 09:15:46;;;;;;;;;;;;;;;4.14;100.00;101142.16;5136882;27;19928;-67
2022/04/01 09:18:11;;;;;;;;;;;;;;;4.20;100.00;101127.19;5136474;27;20267;-67
2022/04/01 09:20:43;;;;;;;;;;;;;;;4.36;100.00;101141.91;5136401;27;19924;-67
2022/04/01 09:23:09;;;;;;;;;;;;;;;4.87;100.00;101147.34;5136954;27;19922;-67
2022/04/01 09:25:34;;;;;;;;;;;;;;;4.96;100.00;101142.81;5136441;27;20010;-67
2022/04/01 09:27:59;;;;;;;;;;;;;;;4.99;100.00;101148.03;5117650;27;19920;-68
2022/04/01 09:30:26;;;;;;;;;;;;;;;4.89;100.00;101153.41;5100547;28;19916;-67
2022/04/01 09:32:57;;;;;;;;;;;;;;;4.24;100.00;101155.19;5097984;28;19920;-68
2022/04/01 09:35:24;;;;;;;;;;;;;;;4.79;100.00;101154.47;5098845;27;19919;-68
2022/04/01 09:37:51;;;;;;;;;;;;;;;4.53;100.00;101153.06;5127215;27;19916;-68
2022/04/01 09:40:20;;;;;;;;;;;;;;;4.72;100.00;101153.69;5115583;28;20051;-68
2022/04/01 09:42:47;;;;;;;;;;;;;;;4.53;100.00;101158.31;5115977;28;19923;-68
2022/04/01 09:45:22;;;;;;;;;;;;;;;4.91;100.00;101159.53;5097335;28;19997;-68
2022/04/01 09:48:01;;;;;;;;;;;;;;;4.57;100.00;101167.03;5118872;27;19931;-68
2022/04/01 09:50:27;;;;;;;;;;;;;;;4.72;100.00;101172.09;5135325;27;19920;-68
2022/04/01 09:52:53;;;;;;;;;;;;;;;4.92;100.00;101177.09;5135299;27;20088;-68
2022/04/01 09:55:18;;;;;;;;;;;;;;;4.60;100.00;101165.22;5116849;27;19952;-67
2022/04/01 09:57:43;;;;;;;;;;;;;;;4.79;100.00;101167.63;5135530;27;20366;-69
2022/04/01 10:00:09;;;;;;;;;;;;;;;5.06;100.00;101177.75;5135565;27;19916;-67
2022/04/01 10:02:35;;;;;;;;;;;;;;;5.52;100.00;101171.72;5113628;28;19959;-69
2022/04/01 10:05:00;;;;;;;;;;;;;;;5.85;100.00;101176.44;5107433;28;20053;-68
2022/04/01 10:07:28;;;;;;;;;;;;;;;6.23;100.00;101171.31;5119045;27;19924;-69
2022/04/01 10:09:54;;;;;;;;;;;;;;;6.50;100.00;101177.78;5127244;27;20378;-69
2022/04/01 10:12:23;;;;;;;;;;;;;;;6.19;100.00;101188.06;5125022;27;19919;-70
2022/04/01 10:14:54;;;;;;;;;;;;;;;7.15;100.00;101179.88;5141979;27;19919;-69
2022/04/01 10:17:20;;;;;;;;;;;;;;;7.17;100.00;101185.94;5145682;27;19915;-69
2022/04/01 10:19:47;;;;;;;;;;;;;;;6.85;100.00;101184.97;5126157;27;19919;-69
2022/04/01 10:22:16;;;;;;;;;;;;;;;6.70;100.00;101190.53;5144858;27;19949;-69
2022/04/01 10:25:00;;;;;;;;;;;;;;;7.27;100.00;101191.88;5144183;27;19919;-69
2022/04/01 10:27:37;;;;;;;;;;;;;;;8.46;100.00;101181.69;5124130;28;19916;-69
2022/04/01 10:30:03;;;;;;;;;;;;;;;9.12;100.00;101202.69;5123631;28;19912;-69
2022/04/01 10:32:34;;;;;;;;;;;;;;;9.40;100.00;101206.19;5122594;28;20272;-70
2022/04/01 10:35:00;;;;;;;;;;;;;;;8.25;100.00;101216.72;5120769;28;20017;-69
2022/04/01 10:37:27;;;;;;;;;;;;;;;8.04;100.00;101205.78;5121815;27;19976;-70
2022/04/01 10:39:54;;;;;;;;;;;;;;;7.42;100.00;101213.53;5125916;27;19916;-69
2022/04/01 10:42:23;;;;;;;;;;;;;;;7.02;100.00;101209.22;5120983;28;19963;-70
2022/04/01 10:44:55;;;;;;;;;;;;;;;7.02;100.00;101215.38;5119967;27;19920;-70
2022/04/01 10:47:22;;;;;;;;;;;;;;;7.87;100.00;101205.38;5126450;27;19963;-70
2022/04/01 10:52:51;;;;;;;;;;;;;;;7.75;100.00;101209.22;5105018;28;19981;-69
2022/04/01 10:55:18;;;;;;;;;;;;;;;7.68;100.00;101215.53;5135321;27;19931;-69
2022/04/01 10:57:45;;;;;;;;;;;;;;;6.98;100.00;101204.91;5141186;27;19919;-70
2022/04/01 11:00:15;;;;;;;;;;;;;;;7.07;100.00;101228.47;5117758;27;19930;-68
2022/04/01 11:02:41;;;;;;;;;;;;;;;7.18;100.00;101215.88;5134931;27;19916;-69
2022/04/01 11:05:23;;;;;;;;;;;;;;;6.46;100.00;101214.81;5134293;27;19919;-68
2022/04/01 11:08:08;;;;;;;;;;;;;;;6.90;100.00;101217.41;5134110;27;19964;-71
2022/04/01 11:10:34;;;;;;;;;;;;;;;6.92;100.00;101223.50;5116497;27;20331;-69
2022/04/01 11:12:59;;;;;;;;;;;;;;;6.50;100.00;101227.03;5135333;27;19915;-69
2022/04/01 11:15:25;;;;;;;;;;;;;;;6.50;100.00;101230.56;5134749;27;19963;-68
2022/04/01 11:17:57;;;;;;;;;;;;;;;6.22;100.00;101230.22;5116651;27;19923;-70
2022/04/01 11:20:26;;;;;;;;;;;;;;;6.78;100.00;101231.72;5133921;28;20010;-69
2022/04/01 11:22:56;;;;;;;;;;;;;;;9.12;100.00;101232.66;5112631;28;19920;-69
2022/04/01 11:25:21;;;;;;;;;;;;;;;9.83;100.00;101226.88;5118268;27;19973;-68
2022/04/01 11:28:01;;;;;;;;;;;;;;;10.00;100.00;101225.38;5141465;27;19916;-68
2022/04/01 11:30:28;;;;;;;;;;;;;;;10.12;100.00;101230.28;5141653;27;20017;-69
2022/04/01 11:32:57;;;;;;;;;;;;;;;9.58;100.00;101218.84;5141554;27;19919;-69
2022/04/01 11:35:24;;;;;;;;;;;;;;;8.89;100.00;101226.31;5123301;27;20293;-70
2022/04/01 11:37:49;;;;;;;;;;;;;;;7.21;100.00;101236.94;5142219;27;19916;-69
2022/04/01 11:40:16;;;;;;;;;;;;;;;6.51;100.00;101242.00;5123549;27;19915;-67
2022/04/01 11:42:56;;;;;;;;;;;;;;;5.94;100.00;101247.44;5141024;27;20430;-68
2022/04/01 11:45:22;;;;;;;;;;;;;;;6.46;100.00;101243.84;5123093;27;19964;-68
2022/04/01 11:47:48;;;;;;;;;;;;;;;7.67;100.00;101251.69;5142251;27;19916;-68
2022/04/01 11:50:14;;;;;;;;;;;;;;;9.74;100.00;101251.06;5141145;27;19984;-68
2022/04/01 11:52:40;;;;;;;;;;;;;;;11.10;100.00;101236.41;5140913;27;19961;-68
2022/04/01 11:55:11;;;;;;;;;;;;;;;9.77;100.00;101245.66;5141560;27;20367;-68
2022/04/01 11:57:37;;;;;;;;;;;;;;;10.62;100.00;101252.41;5142557;27;19969;-69
2022/04/01 12:00:08;;;;;;;;;;;;;;;9.88;100.00;101248.81;5117876;28;19915;-68
2022/04/01 12:02:35;;;;;;;;;;;;;;;9.43;100.00;101248.50;5139606;27;19954;-68
2022/04/01 12:05:00;;;;;;;;;;;;;;;9.62;100.00;101254.97;5142189;27;19916;-68
2022/04/01 12:10:16;;;;;;;;;;;;;;;9.42;100.00;101254.72;5142815;27;20028;-67
2022/04/01 12:12:51;;;;;;;;;;;;;;;9.45;100.00;101270.53;5127067;27;19915;-69
2022/04/01 12:15:16;;;;;;;;;;;;;;;10.34;100.00;101254.28;5144683;27;20378;-68
2022/04/01 12:17:48;;;;;;;;;;;;;;;9.62;100.00;101252.31;5142572;27;19922;-68
2022/04/01 12:20:13;;;;;;;;;;;;;;;8.43;100.00;101257.69;5139569;27;19994;-68
2022/04/01 12:22:40;;;;;;;;;;;;;;;6.79;100.00;101256.38;5141762;27;19957;-67
2022/04/01 12:25:05;;;;;;;;;;;;;;;7.10;100.00;101257.44;5141998;27;20006;-68
2022/04/01 12:27:30;;;;;;;;;;;;;;;6.58;100.00;101259.44;5142022;27;20408;-68
2022/04/01 12:29:58;;;;;;;;;;;;;;;7.40;100.00;101262.03;5142171;27;19920;-68
2022/04/01 12:32:24;;;;;;;;;;;;;;;7.22;100.00;101254.53;5124185;27;20317;-67
2022/04/01 12:34:51;;;;;;;;;;;;;;;6.85;100.00;101261.53;5123104;27;19922;-67
2022/04/01 12:37:16;;;;;;;;;;;;;;;7.43;100.00;101254.03;5139461;27;19927;-68
2022/04/01 12:39:45;;;;;;;;;;;;;;;7.47;100.00;101253.06;5120692;27;19916;-67
2022/04/01 12:42:11;;;;;;;;;;;;;;;6.89;100.00;101256.13;5101834;28;19937;-67
2022/04/01 12:44:37;;;;;;;;;;;;;;;5.73;100.00;101255.69;5119566;28;19920;-68
2022/04/01 12:47:05;;;;;;;;;;;;;;;5.82;100.00;101270.50;5099775;28;19916;-67
2022/04/01 12:49:34;;;;;;;;;;;;;;;6.05;100.00;101277.13;5117774;28;19943;-68
2022/04/01 12:52:02;;;;;;;;;;;;;;;5.78;100.00;101280.19;5117999;28;19955;-68
2022/04/01 12:54:31;;;;;;;;;;;;;;;5.83;100.00;101272.25;5099507;28;19952;-69
2022/04/01 12:56:58;;;;;;;;;;;;;;;6.43;100.00;101271.16;5099036;28;19919;-68